Clinton, Arkansas
Current Conditions -  °F | °C
As of 3:35 PM on Friday 19 Dec 2014 (Local Time) from KCCA Reporting Station
Haze Haze  
Wind Chill: 41°   Ceiling: 1400
Heat Index: 41°   Visibility: 5mi
Dew Point: 37°   Wind: 0mph
Humidity: 87%   Direction: NA
Pressure: 30.22"   Gusts: NA
Location:  35.59°N, 92.46°W
Report Text: KCCA 192135Z AUTO 00000KT 5SM HZ OVC014 05/03 A3022 RMK AO2
Loading
Personal Weather Stations






























Interactive Weather Map New forecast layout! Learn more

10-Day Weather Forecast

Advertisements
Track Severe Weather on mobile